Time;durP1;ratioP1;P1;durP2;ratioP2;P2;SDS_P1;SDS_P2;PMS_P1;PMS_P2;Temp;Humidity;BMP_temperature;BMP_pressure;BME280_temperature;BME280_humidity;BME280_pressure;Samples;Min_cycle;Max_cycle;Signal;HPM_P1;HPM_P2
2022/01/24 00:00:28;;;;;;;15.37;9.67;;;;;;;8.99;56.50;102886.63;690711;28;1273;-86
2022/01/24 00:00:49;;;;;;;15.70;10.27;;;;;;;9.04;56.36;102902.56;692702;28;1557;-86
2022/01/24 00:01:10;;;;;;;15.93;10.05;;;;;;;9.07;56.64;102894.06;686905;28;1654;-86
2022/01/24 00:01:31;;;;;;;15.43;9.80;;;;;;;8.97;56.53;102877.78;690638;28;823;-85
2022/01/24 00:01:54;;;;;;;14.57;9.38;;;;;;;9.10;56.66;102902.06;690429;28;1231;-86
2022/01/24 00:02:15;;;;;;;15.35;10.07;;;;;;;9.05;56.66;102886.13;690584;28;1027;-86
2022/01/24 00:02:37;;;;;;;14.88;10.00;;;;;;;9.07;56.61;102894.06;690611;28;1097;-86
2022/01/24 00:02:58;;;;;;;14.60;9.95;;;;;;;9.03;56.49;102888.63;689083;28;1170;-86
2022/01/24 00:03:18;;;;;;;14.70;9.93;;;;;;;9.05;56.88;102892.22;685105;28;1127;-86
2022/01/24 00:03:39;;;;;;;14.53;9.80;;;;;;;9.02;56.68;102885.91;687927;28;1287;-85
2022/01/24 00:04:02;;;;;;;14.50;9.93;;;;;;;9.02;56.73;102892.03;687779;28;1244;-86
2022/01/24 00:04:23;;;;;;;13.88;9.38;;;;;;;9.05;56.65;102892.22;691722;28;1197;-86
2022/01/24 00:04:44;;;;;;;14.18;9.55;;;;;;;9.00;56.52;102883.22;689593;28;1595;-85
2022/01/24 00:05:05;;;;;;;13.80;9.10;;;;;;;9.00;56.49;102883.22;689912;28;1273;-86
2022/01/24 00:05:26;;;;;;;14.32;9.65;;;;;;;9.00;56.49;102878.00;695870;28;910;-86
2022/01/24 00:05:46;;;;;;;14.27;9.63;;;;;;;9.02;56.73;102880.69;693145;28;1979;-85
2022/01/24 00:06:10;;;;;;;14.88;10.15;;;;;;;9.02;56.29;102886.81;690437;28;1293;-86
2022/01/24 00:06:32;;;;;;;14.52;9.98;;;;;;;8.96;56.40;102875.97;690649;28;807;-86
2022/01/24 00:06:53;;;;;;;13.95;9.85;;;;;;;8.98;56.64;102884.78;685680;28;1303;-86
2022/01/24 00:07:17;;;;;;;14.10;9.57;;;;;;;9.01;56.82;102889.31;689818;28;1167;-86
2022/01/24 00:07:38;;;;;;;15.07;9.30;;;;;;;8.96;57.05;102875.09;687984;28;814;-86
2022/01/24 00:07:58;;;;;;;15.30;9.30;;;;;;;8.95;56.80;102881.09;690444;28;1215;-86
2022/01/24 00:08:20;;;;;;;16.87;9.17;;;;;;;8.99;56.73;102888.31;690468;28;1917;-86
2022/01/24 00:08:41;;;;;;;15.80;8.80;;;;;;;9.01;56.83;102887.63;687636;28;1707;-86
2022/01/24 00:09:04;;;;;;;15.77;8.90;;;;;;;9.01;56.77;102884.09;691223;28;1275;-86
2022/01/24 00:09:24;;;;;;;13.93;9.30;;;;;;;9.03;56.67;102890.34;688630;28;1345;-86
2022/01/24 00:09:45;;;;;;;13.90;9.30;;;;;;;8.99;56.95;102880.50;692764;28;1048;-85
2022/01/24 00:10:08;;;;;;;12.68;8.88;;;;;;;9.01;56.52;102890.22;693028;28;1193;-85
2022/01/24 00:10:29;;;;;;;13.52;9.27;;;;;;;9.01;56.79;102887.63;693413;28;716;-86
2022/01/24 00:10:52;;;;;;;13.52;9.27;;;;;;;8.98;56.77;102878.69;688860;28;873;-86
2022/01/24 00:11:16;;;;;;;13.30;9.15;;;;;;;8.96;56.63;102872.47;696061;28;967;-86
2022/01/24 00:11:59;;;;;;;13.15;8.93;;;;;;;8.95;56.59;102876.78;695532;28;1005;-85
2022/01/24 00:12:28;;;;;;;11.63;9.07;;;;;;;8.96;56.58;102875.97;695389;28;1433;-86
2022/01/24 00:14:57;;;;;;;15.93;9.40;;;;;;;8.98;56.48;102878.69;691407;28;1173;-86
2022/01/24 00:16:13;;;;;;;14.23;9.48;;;;;;;9.00;56.91;102888.41;691354;28;1903;-86
2022/01/24 00:17:36;;;;;;;16.67;9.88;;;;;;;8.98;56.77;102871.75;687856;28;792;-86
2022/01/24 00:18:08;;;;;;;16.40;9.60;;;;;;;9.05;56.61;102886.13;689002;28;1139;-86
2022/01/24 00:26:41;;;;;;;14.75;9.10;;;;;;;9.01;56.71;102885.00;693122;28;1134;-86
2022/01/24 00:26:47;;;;;;;14.27;8.43;;;;;;;8.94;56.70;102892.28;695972;28;1255;-85
2022/01/24 00:27:08;;;;;;;13.35;8.60;;;;;;;8.94;56.52;102888.00;692982;28;1254;-86
2022/01/24 00:27:28;;;;;;;13.15;8.30;;;;;;;8.97;56.45;102887.31;693116;28;1175;-86
2022/01/24 00:27:49;;;;;;;12.53;8.10;;;;;;;9.02;56.47;102902.44;687748;28;1607;-86
2022/01/24 00:28:10;;;;;;;13.65;7.78;;;;;;;8.94;56.35;102877.56;690698;28;1076;-86
2022/01/24 00:28:36;;;;;;;13.45;8.10;;;;;;;8.94;56.70;102887.06;687758;28;1076;-86
2022/01/24 00:28:56;;;;;;;12.83;8.37;;;;;;;8.97;56.55;102893.41;691380;28;1255;-86
2022/01/24 00:29:20;;;;;;;10.70;8.38;;;;;;;8.98;56.24;102890.00;687735;28;1103;-85
2022/01/24 00:29:41;;;;;;;10.80;8.10;;;;;;;8.96;56.79;102896.81;687213;28;1326;-85
2022/01/24 00:30:02;;;;;;;12.53;8.30;;;;;;;8.94;56.22;102877.56;694823;28;1221;-86
2022/01/24 00:30:22;;;;;;;12.43;8.27;;;;;;;8.98;56.07;102899.53;692937;28;1017;-86
2022/01/24 00:30:43;;;;;;;11.93;8.02;;;;;;;9.00;56.32;102887.50;690570;28;744;-86
2022/01/24 00:31:03;;;;;;;12.57;8.02;;;;;;;8.91;56.31;102883.47;691260;28;1212;-86
2022/01/24 00:31:24;;;;;;;11.80;7.83;;;;;;;8.95;56.09;102886.31;687808;28;1108;-86
2022/01/24 00:31:46;;;;;;;11.77;7.93;;;;;;;8.93;56.36;102875.78;693258;28;756;-86
2022/01/24 00:32:07;;;;;;;10.50;8.10;;;;;;;8.96;56.55;102885.50;690092;28;1105;-85
2022/01/24 00:32:28;;;;;;;10.82;7.82;;;;;;;9.01;56.67;102895.44;693101;28;1327;-86
2022/01/24 00:32:48;;;;;;;11.47;7.80;;;;;;;8.96;56.24;102891.59;691867;28;1709;-86
2022/01/24 00:33:09;;;;;;;12.90;7.63;;;;;;;8.98;56.16;102894.31;692922;28;1381;-86
2022/01/24 00:33:30;;;;;;;13.82;7.60;;;;;;;8.94;56.40;102887.06;695704;28;760;-86
2022/01/24 00:33:50;;;;;;;12.98;7.70;;;;;;;8.95;56.31;102889.78;690284;28;1381;-86
2022/01/24 00:34:12;;;;;;;12.43;7.70;;;;;;;9.05;56.45;102896.56;687883;28;1565;-86
2022/01/24 00:34:33;;;;;;;12.70;7.88;;;;;;;9.03;56.63;102903.38;687863;28;826;-86
2022/01/24 00:34:53;;;;;;;13.35;7.78;;;;;;;8.95;56.21;102886.31;684785;28;1485;-86
2022/01/24 00:35:14;;;;;;;13.23;8.00;;;;;;;8.96;56.56;102891.59;689175;28;1182;-86
2022/01/24 00:35:34;;;;;;;12.40;8.10;;;;;;;9.01;56.61;102895.44;687878;28;1133;-86
2022/01/24 00:35:55;;;;;;;12.82;8.10;;;;;;;8.98;56.48;102889.09;687295;28;1108;-86
2022/01/24 00:36:15;;;;;;;11.30;7.40;;;;;;;8.97;56.51;102887.31;687814;28;1207;-86
2022/01/24 00:36:37;;;;;;;11.03;7.27;;;;;;;8.93;56.75;102878.38;687861;28;1285;-85
2022/01/24 00:36:58;;;;;;;9.15;7.10;;;;;;;9.01;56.78;102895.44;687573;28;1718;-85
2022/01/24 00:37:19;;;;;;;11.80;7.82;;;;;;;8.98;56.40;102887.38;690532;28;1082;-86
2022/01/24 00:37:39;;;;;;;11.90;8.10;;;;;;;8.94;56.32;102882.78;693255;28;1330;-86
2022/01/24 00:38:02;;;;;;;11.68;7.90;;;;;;;8.95;56.35;102883.69;689118;28;1122;-86
2022/01/24 00:38:22;;;;;;;10.23;7.70;;;;;;;8.94;56.58;102888.00;690548;28;1189;-86
2022/01/24 00:38:42;;;;;;;10.40;7.60;;;;;;;8.94;56.56;102888.00;695730;28;1279;-85
2022/01/24 00:39:03;;;;;;;10.40;7.80;;;;;;;9.02;56.45;102897.22;690245;28;1238;-86
2022/01/24 00:39:24;;;;;;;10.82;7.40;;;;;;;8.93;56.45;102886.19;689684;28;1495;-86
2022/01/24 00:39:45;;;;;;;9.77;7.20;;;;;;;8.98;56.38;102892.59;685869;28;1558;-86
2022/01/24 00:40:07;;;;;;;10.00;7.40;;;;;;;8.99;56.42;102896.13;687100;28;1122;-85
2022/01/24 00:40:33;;;;;;;9.77;7.40;;;;;;;8.90;56.76;102878.16;685007;28;1399;-86
2022/01/24 00:40:53;;;;;;;10.35;7.10;;;;;;;9.00;56.66;102892.72;684823;28;1316;-85
2022/01/24 00:41:17;;;;;;;10.50;7.03;;;;;;;8.94;56.55;102882.78;687836;28;1245;-86
2022/01/24 00:41:48;;;;;;;9.82;6.97;;;;;;;8.97;56.28;102888.19;687563;28;1844;-86
2022/01/24 00:43:34;;;;;;;9.40;6.85;;;;;;;8.93;56.40;102885.28;684717;28;1093;-86
2022/01/24 00:44:27;;;;;;;11.73;7.40;;;;;;;8.93;56.21;102890.47;682650;28;1304;-86
2022/01/24 00:45:34;;;;;;;8.85;6.65;;;;;;;8.93;56.38;102890.47;690140;28;1800;-86
2022/01/24 00:46:05;;;;;;;10.57;7.20;;;;;;;8.94;56.32;102893.19;690255;28;1914;-86
2022/01/24 00:46:35;;;;;;;10.60;6.80;;;;;;;8.94;56.16;102893.19;693148;28;1225;-86
2022/01/24 00:47:00;;;;;;;10.50;6.70;;;;;;;8.95;55.78;102894.13;690351;28;1158;-86
2022/01/24 00:47:29;;;;;;;10.68;6.47;;;;;;;8.96;56.09;102891.59;687699;28;1092;-86
2022/01/24 00:48:10;;;;;;;8.90;6.10;;;;;;;9.00;56.12;102896.22;687699;28;1397;-86
2022/01/24 00:48:51;;;;;;;8.48;6.07;;;;;;;8.92;56.14;102884.38;687697;28;1228;-86
2022/01/24 00:49:34;;;;;;;9.88;6.30;;;;;;;8.94;55.77;102893.19;684207;28;2047;-86
2022/01/24 00:54:03;;;;;;;9.10;6.55;;;;;;;9.03;55.93;102899.03;679572;29;1248;-86
2022/01/24 00:54:43;;;;;;;9.45;7.05;;;;;;;8.98;55.69;102892.59;683407;28;1213;-86
2022/01/24 00:55:05;;;;;;;11.02;7.22;;;;;;;8.96;56.08;102889.00;676852;28;1682;-85
2022/01/24 00:55:26;;;;;;;11.98;7.28;;;;;;;8.95;55.73;102891.50;682117;29;1588;-86
2022/01/24 00:55:48;;;;;;;12.13;7.22;;;;;;;9.01;55.79;102900.63;682386;29;1073;-86
2022/01/24 00:56:10;;;;;;;12.75;7.43;;;;;;;8.99;55.92;102899.63;683932;28;1116;-86
2022/01/24 00:56:31;;;;;;;11.13;7.20;;;;;;;8.94;55.90;102885.38;682397;29;811;-86
2022/01/24 00:56:51;;;;;;;10.20;7.22;;;;;;;8.96;56.08;102886.38;684489;28;2039;-86
2022/01/24 00:57:12;;;;;;;10.70;7.00;;;;;;;8.94;55.81;102888.00;684828;28;1132;-85
2022/01/24 00:57:33;;;;;;;11.65;7.38;;;;;;;8.94;55.68;102872.38;682789;28;1419;-86
2022/01/24 00:57:53;;;;;;;11.45;7.30;;;;;;;9.02;55.92;102893.72;683084;28;1241;-86
2022/01/24 00:58:15;;;;;;;9.63;6.87;;;;;;;9.00;55.98;102898.84;684840;28;1055;-86
2022/01/24 00:58:35;;;;;;;9.05;6.65;;;;;;;9.01;55.66;102885.00;690469;28;740;-85
2022/01/24 00:58:56;;;;;;;9.53;6.60;;;;;;;8.98;55.88;102884.78;691587;28;1146;-86
2022/01/24 00:59:16;;;;;;;10.20;6.85;;;;;;;8.96;55.84;102881.19;692969;28;1011;-86
2022/01/24 00:59:37;;;;;;;9.83;6.77;;;;;;;9.00;55.96;102891.03;684719;28;1116;-85
2022/01/24 00:59:58;;;;;;;9.48;6.88;;;;;;;9.03;56.09;102899.03;685687;28;1197;-86
2022/01/24 01:00:18;;;;;;;9.40;7.13;;;;;;;8.98;56.00;102882.19;682403;28;1291;-86
2022/01/24 01:00:39;;;;;;;9.68;7.15;;;;;;;8.97;56.07;102882.09;687228;28;1437;-85
2022/01/24 01:01:11;;;;;;;9.70;7.00;;;;;;;8.98;56.21;102886.50;688262;28;1099;-86
2022/01/24 01:01:32;;;;;;;10.23;7.15;;;;;;;8.94;56.00;102888.00;687136;28;1635;-86
2022/01/24 01:01:53;;;;;;;8.93;6.88;;;;;;;8.98;56.21;102895.19;684030;28;1188;-86
2022/01/24 01:02:17;;;;;;;9.23;6.80;;;;;;;8.96;55.88;102888.09;679650;29;1114;-86
2022/01/24 01:02:38;;;;;;;9.23;6.90;;;;;;;8.97;55.99;102892.50;688450;28;862;-85
2022/01/24 01:02:59;;;;;;;9.30;6.97;;;;;;;9.02;55.84;102891.09;692380;28;1303;-86
2022/01/24 01:03:19;;;;;;;10.30;7.07;;;;;;;9.02;55.79;102892.03;687539;28;1202;-86
2022/01/24 01:03:40;;;;;;;10.85;7.07;;;;;;;8.96;55.93;102885.50;687624;28;1250;-85
2022/01/24 01:04:00;;;;;;;11.03;7.17;;;;;;;8.98;55.88;102892.59;683354;28;1170;-85
2022/01/24 01:04:26;;;;;;;9.50;7.00;;;;;;;9.00;55.91;102892.72;681103;29;1234;-86
2022/01/24 01:06:18;;;;;;;9.98;7.30;;;;;;;9.00;55.82;102890.09;682259;29;1332;-86
2022/01/24 01:06:42;;;;;;;9.05;6.93;;;;;;;9.03;55.67;102888.63;687857;28;775;-86
2022/01/24 01:07:06;;;;;;;8.82;6.70;;;;;;;8.98;55.77;102876.97;690735;28;1225;-86
2022/01/24 01:07:51;;;;;;;8.80;6.68;;;;;;;8.98;55.93;102873.47;689788;28;1302;-85
2022/01/24 01:18:10;;;;;;;8.27;6.13;;;;;;;8.96;55.29;102885.50;689432;28;1575;-86
2022/01/24 01:18:32;;;;;;;7.88;6.13;;;;;;;8.92;55.74;102887.00;693035;28;1178;-86
2022/01/24 01:18:53;;;;;;;8.10;6.10;;;;;;;8.96;55.33;102889.00;686755;28;1429;-85
2022/01/24 01:19:14;;;;;;;8.38;6.40;;;;;;;8.91;55.59;102885.19;684878;28;1369;-86
2022/01/24 01:19:35;;;;;;;8.48;6.40;;;;;;;8.95;55.32;102879.38;683358;28;1479;-85
2022/01/24 01:19:55;;;;;;;9.07;6.30;;;;;;;8.92;55.72;102884.38;682023;28;1218;-85
2022/01/24 01:20:22;;;;;;;8.35;5.72;;;;;;;8.95;55.83;102879.38;684873;28;1354;-86
2022/01/24 01:21:19;;;;;;;8.75;5.20;;;;;;;8.93;55.59;102888.78;684817;28;1527;-86
2022/01/24 01:21:39;;;;;;;6.17;5.00;;;;;;;8.93;55.42;102886.19;687582;28;1184;-86
2022/01/24 01:22:00;;;;;;;5.43;4.85;;;;;;;8.99;55.55;102890.91;685767;28;1341;-86
2022/01/24 01:22:20;;;;;;;5.65;4.90;;;;;;;8.94;55.50;102887.06;687663;28;1089;-86
2022/01/24 01:22:41;;;;;;;6.80;4.97;;;;;;;8.93;55.44;102885.28;687738;28;811;-85
2022/01/24 01:23:01;;;;;;;7.53;5.20;;;;;;;8.96;55.50;102896.81;688969;28;1270;-85
2022/01/24 01:23:22;;;;;;;8.90;5.60;;;;;;;8.89;55.44;102882.47;682217;29;1173;-86
2022/01/24 01:23:53;;;;;;;9.02;5.90;;;;;;;8.98;55.61;102899.53;690331;28;1304;-85
2022/01/24 01:24:14;;;;;;;7.88;5.60;;;;;;;8.88;55.26;102874.53;687540;28;1217;-86
2022/01/24 01:24:41;;;;;;;6.47;5.60;;;;;;;8.93;55.28;102882.66;687671;28;1358;-85
2022/01/24 01:25:02;;;;;;;7.45;5.80;;;;;;;8.94;55.49;102877.56;686277;28;1199;-86
2022/01/24 01:25:23;;;;;;;7.63;5.88;;;;;;;8.97;55.21;102888.19;683854;28;791;-86
2022/01/24 01:25:44;;;;;;;8.65;5.43;;;;;;;8.89;55.29;102871.13;684611;28;1209;-86
2022/01/24 01:26:12;;;;;;;8.45;5.15;;;;;;;8.98;55.04;102892.59;686808;28;1211;-85
2022/01/24 01:26:35;;;;;;;8.98;5.00;;;;;;;8.94;55.41;102882.78;686053;28;1624;-85
2022/01/24 01:27:03;;;;;;;7.95;5.28;;;;;;;8.95;54.99;102889.78;685403;28;1020;-85
2022/01/24 01:27:35;;;;;;;7.93;5.40;;;;;;;8.89;55.39;102881.56;687226;28;1324;-85
2022/01/24 01:27:57;;;;;;;7.57;5.25;;;;;;;8.92;55.29;102884.38;688743;28;1222;-86
2022/01/24 01:28:18;;;;;;;8.07;5.43;;;;;;;8.91;55.29;102877.38;693601;28;1269;-86
2022/01/24 01:28:42;;;;;;;7.95;5.50;;;;;;;8.90;55.15;102885.97;689426;28;1237;-86
2022/01/24 01:29:09;;;;;;;8.05;5.50;;;;;;;8.88;55.01;102871.94;686951;28;1640;-86
2022/01/24 01:29:43;;;;;;;7.00;5.05;;;;;;;8.93;55.05;102886.19;685146;28;1254;-85
2022/01/24 01:30:12;;;;;;;6.82;5.35;;;;;;;8.97;55.42;102896.00;687298;28;1096;-85
2022/01/24 01:30:36;;;;;;;6.90;5.25;;;;;;;8.95;55.44;102899.31;691016;28;819;-86
2022/01/24 01:31:02;;;;;;;6.78;5.10;;;;;;;8.91;55.63;102885.19;693327;28;1284;-86
2022/01/24 01:31:33;;;;;;;6.78;5.07;;;;;;;8.91;55.44;102887.78;688434;28;828;-86
2022/01/24 01:32:54;;;;;;;7.75;5.60;;;;;;;9.00;55.45;102904.03;693594;28;1209;-86
2022/01/24 01:33:32;;;;;;;8.60;5.32;;;;;;;9.00;55.41;102888.41;690865;28;1449;-86
2022/01/24 01:35:24;;;;;;;6.40;4.60;;;;;;;9.00;55.31;102888.41;683112;28;1125;-86
2022/01/24 01:36:16;;;;;;;8.07;4.75;;;;;;;8.96;55.52;102881.19;690281;28;1385;-86
2022/01/24 01:37:13;;;;;;;5.15;4.10;;;;;;;8.93;55.04;102891.41;693444;28;1244;-86
2022/01/24 01:38:43;;;;;;;5.68;4.53;;;;;;;8.95;55.26;102884.59;690022;28;1374;-85
2022/01/24 01:52:42;;;;;;;5.15;4.50;;;;;;;8.93;55.63;102882.66;688368;28;838;-86
2022/01/24 01:55:47;;;;;;;5.00;4.30;;;;;;;8.88;55.41;102864.13;688120;28;1717;-86
2022/01/24 01:56:08;;;;;;;5.70;4.30;;;;;;;8.94;55.49;102876.66;689391;28;1236;-86
2022/01/24 01:56:29;;;;;;;7.22;4.38;;;;;;;8.84;55.45;102854.31;688253;28;1113;-86
2022/01/24 01:56:49;;;;;;;6.80;4.28;;;;;;;8.93;55.38;102875.78;688263;28;859;-86
2022/01/24 01:57:12;;;;;;;5.93;4.30;;;;;;;8.85;55.59;102867.41;688028;28;1210;-86
2022/01/24 01:57:33;;;;;;;4.82;4.35;;;;;;;8.96;55.25;102877.69;688437;28;949;-86
2022/01/24 01:57:53;;;;;;;4.88;4.38;;;;;;;8.94;55.26;102877.56;687707;28;1157;-85
2022/01/24 01:58:17;;;;;;;5.00;4.40;;;;;;;8.87;55.42;102865.84;685663;28;1095;-86
2022/01/24 01:58:38;;;;;;;4.85;4.35;;;;;;;8.88;55.28;102867.66;688195;28;1523;-86
2022/01/24 01:58:59;;;;;;;5.27;4.53;;;;;;;8.86;55.40;102853.59;686005;28;1289;-86
2022/01/24 01:59:19;;;;;;;5.50;4.55;;;;;;;8.93;55.19;102873.16;692785;28;1156;-86
2022/01/24 01:59:40;;;;;;;5.55;4.45;;;;;;;8.89;55.18;102865.94;690463;28;770;-85
2022/01/24 02:00:01;;;;;;;4.97;4.20;;;;;;;8.86;55.53;102858.81;692233;28;1344;-86
2022/01/24 02:00:21;;;;;;;5.50;4.23;;;;;;;8.82;55.24;102863.69;693577;28;1221;-86
2022/01/24 02:00:47;;;;;;;5.78;4.40;;;;;;;8.86;55.21;102863.13;690904;28;1068;-86
2022/01/24 02:01:08;;;;;;;5.97;4.50;;;;;;;8.90;55.68;102865.13;691040;28;1329;-86
2022/01/24 02:01:28;;;;;;;5.85;4.70;;;;;;;8.91;55.26;102872.16;688111;28;1103;-86
2022/01/24 02:01:49;;;;;;;6.03;4.73;;;;;;;8.88;55.53;102861.53;688143;28;1139;-86
2022/01/24 02:02:10;;;;;;;5.63;4.60;;;;;;;8.91;55.27;102869.56;690697;28;1237;-86
2022/01/24 02:02:30;;;;;;;5.97;4.15;;;;;;;8.82;55.42;102855.88;690578;28;1195;-86
2022/01/24 02:02:51;;;;;;;5.77;4.20;;;;;;;8.83;55.20;102861.22;691009;28;1712;-85
2022/01/24 02:03:12;;;;;;;5.87;4.10;;;;;;;8.84;55.50;102859.53;690873;28;1129;-86
2022/01/24 02:03:32;;;;;;;5.28;4.30;;;;;;;8.86;55.58;102873.53;693648;28;1491;-86
2022/01/24 02:03:55;;;;;;;5.85;4.05;;;;;;;8.88;55.57;102874.53;688092;28;1183;-86
2022/01/24 02:04:17;;;;;;;4.85;4.05;;;;;;;8.85;55.58;102872.63;690794;28;1315;-85
2022/01/24 02:04:38;;;;;;;4.22;3.70;;;;;;;8.83;55.46;102858.59;693604;28;1201;-86
2022/01/24 02:04:58;;;;;;;4.20;3.80;;;;;;;8.86;55.66;102865.72;690483;28;1465;-86
2022/01/24 02:05:20;;;;;;;3.90;3.50;;;;;;;8.80;55.30;102857.50;690912;28;1213;-86
2022/01/24 02:05:41;;;;;;;4.00;3.60;;;;;;;8.82;55.78;102861.09;690677;28;1374;-85
2022/01/24 02:06:02;;;;;;;4.47;4.07;;;;;;;8.84;55.42;102869.94;687813;28;1955;-86
2022/01/24 02:06:24;;;;;;;4.65;4.18;;;;;;;8.82;55.42;102864.63;690960;28;836;-86
2022/01/24 02:06:45;;;;;;;5.32;4.28;;;;;;;8.87;55.24;102867.53;688036;28;1449;-86
2022/01/24 02:07:10;;;;;;;5.50;4.20;;;;;;;8.85;55.14;102872.63;687929;28;1211;-85
2022/01/24 02:07:30;;;;;;;5.05;4.20;;;;;;;8.83;55.27;102857.72;688179;28;1235;-86
2022/01/24 02:07:52;;;;;;;4.93;4.07;;;;;;;8.81;55.56;102854.09;690757;28;1186;-86
2022/01/24 02:08:13;;;;;;;5.15;3.80;;;;;;;8.87;55.51;102862.31;690787;28;1295;-86
2022/01/24 02:08:34;;;;;;;5.60;4.00;;;;;;;8.88;55.32;102877.16;688365;28;752;-86
2022/01/24 02:09:02;;;;;;;6.28;4.10;;;;;;;8.90;55.43;102865.13;690698;28;1178;-86
2022/01/24 02:09:29;;;;;;;5.10;3.88;;;;;;;8.83;55.14;102857.72;687827;28;1353;-86
2022/01/24 02:09:50;;;;;;;4.20;3.80;;;;;;;8.90;55.30;102870.34;696011;28;1037;-85
2022/01/24 02:10:10;;;;;;;4.10;3.70;;;;;;;8.83;55.51;102858.59;690827;28;1106;-86
2022/01/24 02:10:34;;;;;;;3.70;3.40;;;;;;;8.86;55.44;102858.81;688267;28;1218;-86
2022/01/24 02:10:55;;;;;;;4.38;3.78;;;;;;;8.87;55.49;102868.44;689132;28;1325;-86
2022/01/24 02:11:17;;;;;;;4.40;3.80;;;;;;;8.89;55.65;102868.53;688153;28;1241;-86
2022/01/24 02:11:38;;;;;;;5.03;4.07;;;;;;;8.88;55.40;102856.31;688128;28;1370;-86
2022/01/24 02:11:59;;;;;;;4.25;3.60;;;;;;;8.91;55.46;102869.56;691872;28;1136;-86
2022/01/24 02:12:24;;;;;;;4.47;3.55;;;;;;;8.93;55.72;102864.44;690616;28;1225;-86
2022/01/24 02:12:54;;;;;;;4.75;3.58;;;;;;;8.83;55.46;102853.41;688230;28;1116;-86
2022/01/24 02:13:15;;;;;;;3.65;3.30;;;;;;;8.87;55.60;102863.25;690981;28;1012;-85
2022/01/24 02:13:35;;;;;;;3.85;3.42;;;;;;;8.88;55.76;102877.16;690979;28;850;-86
2022/01/24 02:14:00;;;;;;;4.03;3.40;;;;;;;8.81;55.50;102864.50;691600;28;1158;-85
2022/01/24 02:14:25;;;;;;;4.13;3.50;;;;;;;8.84;55.50;102856.91;693617;28;1044;-86
2022/01/24 02:14:51;;;;;;;3.97;3.58;;;;;;;8.87;55.49;102864.94;690121;28;1214;-85
2022/01/24 02:15:16;;;;;;;4.00;3.60;;;;;;;8.80;55.47;102848.00;690836;28;1308;-85
2022/01/24 02:15:57;;;;;;;3.90;3.60;;;;;;;8.83;55.80;102869.03;689129;28;1238;-86
2022/01/24 02:16:30;;;;;;;3.70;3.40;;;;;;;8.86;55.61;102857.91;690779;28;1264;-86
2022/01/24 02:17:00;;;;;;;3.83;3.53;;;;;;;8.84;55.28;102854.31;690705;28;1366;-86
2022/01/24 02:17:30;;;;;;;4.00;3.60;;;;;;;8.88;55.13;102861.53;688511;28;1106;-86
2022/01/24 02:21:58;;;;;;;3.90;3.58;;;;;;;8.88;54.73;102864.13;690814;28;1539;-85
2022/01/24 02:22:51;;;;;;;3.85;3.55;;;;;;;8.82;54.57;102845.47;688011;28;1528;-86
2022/01/24 02:23:48;;;;;;;3.50;3.20;;;;;;;8.81;54.48;102848.88;690875;28;842;-86
2022/01/24 02:24:12;;;;;;;3.80;3.50;;;;;;;8.78;54.49;102846.97;693235;28;1122;-86
2022/01/24 02:24:43;;;;;;;3.60;3.40;;;;;;;8.82;54.51;102850.69;693497;28;906;-86
2022/01/24 02:25:15;;;;;;;3.30;3.10;;;;;;;8.80;55.05;102855.81;691677;28;1537;-86
2022/01/24 02:25:37;;;;;;;3.40;3.17;;;;;;;8.73;55.00;102836.22;690852;28;815;-86
2022/01/24 02:26:01;;;;;;;3.55;3.25;;;;;;;8.77;54.60;102846.06;689961;28;1981;-85
2022/01/24 02:26:22;;;;;;;3.83;3.47;;;;;;;8.83;54.87;102847.31;689381;28;1075;-86
2022/01/24 02:26:42;;;;;;;3.78;3.38;;;;;;;8.83;54.91;102852.50;688099;28;1178;-85
2022/01/24 02:27:04;;;;;;;3.60;3.30;;;;;;;8.83;54.56;102852.50;687973;28;1071;-86
2022/01/24 02:27:27;;;;;;;3.45;3.17;;;;;;;8.80;54.79;102842.78;688080;28;1263;-86
2022/01/24 02:27:54;;;;;;;3.97;3.30;;;;;;;8.81;54.50;102844.59;688135;28;1131;-86
2022/01/24 02:28:17;;;;;;;4.32;3.35;;;;;;;8.80;54.34;102847.06;696294;28;1172;-85
2022/01/24 02:28:49;;;;;;;3.70;3.33;;;;;;;8.75;54.88;102839.88;688515;28;1472;-85
2022/01/24 02:30:57;;;;;;;3.70;3.40;;;;;;;8.85;54.70;102846.59;688534;28;1224;-86
2022/01/24 02:31:43;;;;;;;3.90;3.50;;;;;;;8.76;54.56;102839.06;693649;28;835;-86
2022/01/24 02:32:04;;;;;;;3.50;3.20;;;;;;;8.75;54.94;102842.47;687678;28;1120;-86
2022/01/24 02:32:24;;;;;;;3.60;3.30;;;;;;;8.74;54.74;102835.44;688129;28;863;-86
2022/01/24 02:32:45;;;;;;;3.60;3.30;;;;;;;8.73;54.75;102836.22;685593;28;708;-86
2022/01/24 02:33:06;;;;;;;3.47;3.17;;;;;;;8.77;55.03;102846.06;690023;28;1467;-86
2022/01/24 02:33:26;;;;;;;3.40;3.10;;;;;;;8.73;54.85;102841.44;693712;28;1195;-85
2022/01/24 02:33:49;;;;;;;3.23;3.00;;;;;;;8.77;54.75;102843.47;690877;28;1013;-86
2022/01/24 02:34:24;;;;;;;3.20;2.90;;;;;;;8.83;54.79;102850.78;690744;28;1453;-86
2022/01/24 02:34:48;;;;;;;3.10;2.90;;;;;;;8.76;54.97;102838.16;688072;28;2132;-85
2022/01/24 02:35:09;;;;;;;3.25;2.95;;;;;;;8.77;55.12;102837.34;688249;28;1126;-86
2022/01/24 02:35:30;;;;;;;3.10;2.90;;;;;;;8.75;54.95;102834.66;685356;28;1254;-86
2022/01/24 02:35:52;;;;;;;2.90;2.70;;;;;;;8.72;54.78;102833.53;690652;28;1291;-86
2022/01/24 02:36:21;;;;;;;3.00;2.80;;;;;;;8.78;55.05;102844.34;693580;28;991;-86
2022/01/24 02:36:42;;;;;;;3.80;3.30;;;;;;;8.75;54.91;102839.88;693527;28;1316;-85
2022/01/24 02:37:07;;;;;;;4.05;3.45;;;;;;;8.76;54.64;102838.16;692255;28;1167;-86
2022/01/24 02:37:27;;;;;;;3.60;3.30;;;;;;;8.72;54.71;102830.94;688159;28;1275;-86
2022/01/24 02:37:48;;;;;;;3.50;3.20;;;;;;;8.72;54.72;102844.84;685560;28;745;-86
2022/01/24 02:39:59;;;;;;;3.10;2.90;;;;;;;8.69;54.36;102844.63;687533;28;1257;-86
2022/01/24 02:40:21;;;;;;;3.35;3.05;;;;;;;8.79;54.52;102858.28;688068;28;1120;-86
2022/01/24 02:40:42;;;;;;;3.26;3.00;;;;;;;8.74;54.62;102852.78;688259;28;1828;-86
2022/01/24 02:48:40;;;;;;;3.30;3.10;;;;;;;8.75;54.35;102842.47;690721;28;830;-86
2022/01/24 02:49:03;;;;;;;3.33;3.13;;;;;;;8.68;54.22;102848.03;689453;28;1534;-85
2022/01/24 02:49:23;;;;;;;3.25;3.00;;;;;;;8.71;54.54;102847.34;690027;28;1510;-85
2022/01/24 02:49:44;;;;;;;3.38;3.08;;;;;;;8.72;54.45;102850.03;687161;28;1543;-86
2022/01/24 02:50:05;;;;;;;3.40;3.10;;;;;;;8.72;54.46;102847.44;689766;28;1206;-86
2022/01/24 02:51:46;;;;;;;3.30;3.00;;;;;;;8.70;54.42;102845.53;688029;28;1253;-86
2022/01/24 02:51:48;;;;;;;3.20;3.00;;;;;;;8.67;54.52;102835.84;690537;28;1127;-85
2022/01/24 02:52:13;;;;;;;3.35;3.05;;;;;;;8.66;54.45;102839.19;693588;28;1232;-86
2022/01/24 02:52:34;;;;;;;3.50;3.20;;;;;;;8.65;54.46;102836.53;693557;28;862;-85
2022/01/24 02:52:54;;;;;;;3.50;3.20;;;;;;;8.73;54.63;102849.25;690621;28;1297;-86
2022/01/24 02:53:15;;;;;;;3.37;3.13;;;;;;;8.69;54.59;102842.03;685475;28;1121;-86
2022/01/24 02:53:36;;;;;;;3.33;3.03;;;;;;;8.65;54.76;102829.59;687964;28;1344;-86
2022/01/24 02:53:57;;;;;;;4.50;3.00;;;;;;;8.69;54.32;102836.84;691663;28;1270;-86
2022/01/24 02:54:28;;;;;;;4.85;3.00;;;;;;;8.65;54.41;102831.31;690683;28;1182;-85
2022/01/24 02:54:49;;;;;;;4.32;3.00;;;;;;;8.64;54.45;102830.41;682565;28;1221;-85
2022/01/24 02:55:10;;;;;;;3.22;3.03;;;;;;;8.65;54.79;102832.19;690420;28;1310;-86
2022/01/24 02:55:31;;;;;;;3.27;3.03;;;;;;;8.66;54.57;102834.00;690796;28;1424;-85
2022/01/24 02:55:52;;;;;;;3.47;3.17;;;;;;;8.64;54.58;102827.78;685588;28;1125;-86
2022/01/24 02:56:12;;;;;;;3.90;3.08;;;;;;;8.69;54.53;102839.44;689119;28;1392;-86
2022/01/24 02:56:33;;;;;;;4.00;3.00;;;;;;;8.66;54.64;102828.78;685455;28;1207;-86
2022/01/24 02:56:53;;;;;;;3.65;2.80;;;;;;;8.68;54.46;102831.50;691016;28;1190;-86
2022/01/24 02:57:14;;;;;;;3.33;2.93;;;;;;;8.68;54.29;102829.81;690826;28;1349;-86
2022/01/24 02:57:34;;;;;;;3.08;2.78;;;;;;;8.73;54.44;102838.84;693457;28;1414;-86
2022/01/24 02:57:55;;;;;;;3.10;2.80;;;;;;;8.67;54.78;102828.03;691026;28;1194;-86
2022/01/24 02:58:16;;;;;;;3.20;2.90;;;;;;;8.72;54.62;102831.81;687994;28;1154;-86
2022/01/24 02:58:37;;;;;;;3.42;3.13;;;;;;;8.69;54.39;102834.22;690648;28;1122;-86
2022/01/24 02:58:57;;;;;;;3.40;3.10;;;;;;;8.66;54.54;102826.19;687964;28;1273;-85
2022/01/24 02:59:18;;;;;;;3.20;3.00;;;;;;;8.69;54.64;102829.03;687657;28;1467;-86
2022/01/24 02:59:39;;;;;;;3.30;3.10;;;;;;;8.70;54.70;102832.50;687776;28;1240;-86
2022/01/24 02:59:59;;;;;;;3.55;3.25;;;;;;;8.70;54.58;102833.44;693326;28;1209;-86
2022/01/24 03:00:20;;;;;;;3.40;3.20;;;;;;;8.74;54.71;102837.16;693495;28;1023;-86